Capivari, Brazil
Current Conditions -  °F | °C
As of 9:00 AM on Monday 20 Oct 2014 (Local Time) from SBKP Reporting Station
Scattered Clouds Scattered Clouds  
Wind Chill: 73°   Ceiling: Unl
Heat Index: 73°   Visibility: 5mi
Dew Point: 64°   Wind: 14mph
Humidity: 73%   Direction: 240°WSW
Pressure: 30.09"   Gusts: NA
Location:  23°S, 47.51°W
Report Text: SBKP 201200Z 24012KT 8000 FEW020 SCT100 23/18 Q1019
Loading
Personal Weather Stations






























Interactive Weather Map
Tropical Storm Tracking
New forecast layout! Learn more

10-Day Weather Forecast

Advertisements
Track Severe Weather on mobile